Time;durP1;ratioP1;P1;durP2;ratioP2;P2;SDS_P1;SDS_P2;PMS_P1;PMS_P2;Temp;Humidity;BMP_temperature;BMP_pressure;BME280_temperature;BME280_humidity;BME280_pressure;Samples;Min_cycle;Max_cycle;Signal;HPM_P1;HPM_P2
2022/01/10 00:00:10;;;;;;;119.75;64.07;;;;;;;-3.82;80.55;101023.13;1746577;81;22364;-86
2022/01/10 00:02:38;;;;;;;124.27;64.62;;;;;;;-3.84;80.60;101029.81;1746425;81;21137;-86
2022/01/10 00:05:05;;;;;;;127.95;68.02;;;;;;;-3.86;80.63;101021.07;1746582;81;21646;-85
2022/01/10 00:07:32;;;;;;;114.72;62.05;;;;;;;-3.87;80.63;101024.79;1746877;82;21820;-85
2022/01/10 00:09:59;;;;;;;123.92;62.43;;;;;;;-3.86;80.73;101021.47;1746980;80;21086;-86
2022/01/10 00:12:25;;;;;;;116.22;63.02;;;;;;;-3.85;80.70;101027.11;1746859;81;21050;-86
2022/01/10 00:14:54;;;;;;;119.72;62.98;;;;;;;-3.85;80.74;101022.85;1746740;82;21606;-86
2022/01/10 00:17:22;;;;;;;118.33;59.40;;;;;;;-3.84;80.67;101019.92;1747036;82;21093;-86
2022/01/10 00:19:48;;;;;;;125.78;63.23;;;;;;;-3.86;80.59;101024.93;1733438;82;21226;-85
2022/01/10 00:22:15;;;;;;;115.95;62.13;;;;;;;-3.86;80.51;101030.08;1733665;82;21011;-86
2022/01/10 00:24:41;;;;;;;114.45;61.53;;;;;;;-3.87;80.51;101040.22;1733550;82;21574;-86
2022/01/10 00:27:08;;;;;;;117.85;64.10;;;;;;;-3.88;80.56;101047.05;1734828;82;21063;-86
2022/01/10 00:29:35;;;;;;;118.22;63.33;;;;;;;-3.86;80.55;101050.64;1735635;82;21062;-87
2022/01/10 00:32:01;;;;;;;115.57;64.03;;;;;;;-3.84;80.52;101054.25;1685363;85;22636;-86
2022/01/10 00:34:28;;;;;;;117.28;62.62;;;;;;;-3.85;80.47;101055.39;1685676;83;21097;-86
2022/01/10 00:36:55;;;;;;;119.08;61.50;;;;;;;-3.88;80.33;101058.62;1746464;82;21531;-85
2022/01/10 00:39:26;;;;;;;130.72;64.67;;;;;;;-3.90;80.30;101062.72;1715755;82;21050;-85
2022/01/10 00:41:55;;;;;;;116.08;63.68;;;;;;;-3.91;80.22;101059.23;1736212;82;21078;-86
2022/01/10 00:44:25;;;;;;;145.22;73.22;;;;;;;-3.92;80.22;101066.84;1743257;82;21749;-85
2022/01/10 00:46:49;;;;;;;125.07;64.95;;;;;;;-3.93;80.27;101067.20;1735048;82;21093;-85
2022/01/10 00:49:16;;;;;;;117.97;62.45;;;;;;;-3.93;80.26;101076.20;1685231;85;21123;-84
2022/01/10 00:51:42;;;;;;;119.85;61.45;;;;;;;-3.95;80.18;101092.27;1736182;82;21592;-85
2022/01/10 00:54:09;;;;;;;119.60;61.98;;;;;;;-4.01;80.01;101091.73;1735909;82;21066;-84
2022/01/10 00:56:36;;;;;;;123.97;61.48;;;;;;;-4.06;80.05;101092.99;1735778;82;21749;-84
2022/01/10 00:59:03;;;;;;;119.45;60.70;;;;;;;-4.06;80.19;101101.99;1748355;82;21547;-86
2022/01/10 01:01:29;;;;;;;116.05;62.35;;;;;;;-4.04;80.33;101106.49;1735842;81;21094;-85
2022/01/10 01:03:56;;;;;;;114.05;60.65;;;;;;;-4.03;80.29;101109.98;1685530;85;21556;-86
2022/01/10 01:06:23;;;;;;;120.10;63.08;;;;;;;-4.03;80.19;101117.70;1747063;82;21034;-85
2022/01/10 01:08:49;;;;;;;118.82;59.95;;;;;;;-4.03;80.20;101111.27;1749262;81;21845;-85
2022/01/10 01:14:08;;;;;;;122.17;61.25;;;;;;;-4.05;80.08;101123.98;1684511;83;21104;-86
2022/01/10 01:16:43;;;;;;;129.23;64.35;;;;;;;-4.07;80.05;101117.81;1744551;82;21198;-86
2022/01/10 01:24:28;;;;;;;113.30;63.15;;;;;;;-4.12;79.98;101141.80;1748451;82;21038;-86
2022/01/10 01:26:55;;;;;;;111.83;60.25;;;;;;;-4.16;79.91;101147.44;1735814;81;21074;-85
2022/01/10 01:29:24;;;;;;;123.45;63.73;;;;;;;-4.22;79.91;101145.62;1737631;82;21527;-86
2022/01/10 01:31:51;;;;;;;120.97;64.22;;;;;;;-4.23;80.11;101150.61;1737968;82;21055;-85
2022/01/10 01:34:18;;;;;;;119.93;64.40;;;;;;;-4.23;80.17;101153.19;1738053;82;21800;-85
2022/01/10 01:36:49;;;;;;;135.30;68.75;;;;;;;-4.24;80.17;101158.72;1738035;82;21073;-85
2022/01/10 01:39:21;;;;;;;125.35;64.87;;;;;;;-4.24;80.15;101169.00;1737728;82;21563;-85
2022/01/10 01:41:50;;;;;;;133.07;66.80;;;;;;;-4.23;80.17;101175.92;1738175;82;21232;-86
2022/01/10 01:44:16;;;;;;;122.85;66.53;;;;;;;-4.25;80.19;101172.31;1738217;82;21138;-85
2022/01/10 01:46:43;;;;;;;130.82;69.40;;;;;;;-4.22;80.27;101179.03;1738094;82;22519;-85
2022/01/10 01:49:12;;;;;;;128.78;65.70;;;;;;;-4.25;80.16;101180.02;1737920;82;21081;-87
2022/01/10 01:51:39;;;;;;;127.22;64.07;;;;;;;-4.27;80.23;101180.66;1738116;82;21074;-85
2022/01/10 01:54:05;;;;;;;122.70;63.60;;;;;;;-4.31;80.21;101186.80;1738089;82;21058;-85
2022/01/10 01:56:32;;;;;;;113.28;62.93;;;;;;;-4.35;80.20;101185.11;1738209;82;21066;-85
2022/01/10 01:58:59;;;;;;;119.20;61.08;;;;;;;-4.33;80.32;101194.75;1738252;82;21740;-85
2022/01/10 02:01:26;;;;;;;109.37;60.35;;;;;;;-4.35;80.44;101198.85;1738093;82;21075;-86
2022/01/10 02:03:53;;;;;;;111.77;59.63;;;;;;;-4.34;80.53;101203.21;1737954;81;21055;-85
2022/01/10 02:06:20;;;;;;;122.28;63.55;;;;;;;-4.34;80.58;101200.64;1737909;82;21993;-85
2022/01/10 02:08:46;;;;;;;131.63;66.87;;;;;;;-4.32;80.61;101205.92;1737886;82;21038;-85
2022/01/10 02:11:14;;;;;;;128.27;65.52;;;;;;;-4.33;80.57;101212.74;1737914;82;22561;-85
2022/01/10 02:13:40;;;;;;;121.25;62.70;;;;;;;-4.36;80.35;101216.70;1737920;82;21528;-85
2022/01/10 02:16:10;;;;;;;123.05;65.20;;;;;;;-4.35;80.37;101227.52;1737910;82;21086;-86
2022/01/10 02:18:36;;;;;;;134.55;67.97;;;;;;;-4.35;80.42;101226.23;1737478;82;21364;-86
2022/01/10 02:21:05;;;;;;;130.52;68.33;;;;;;;-4.34;80.33;101230.59;1737786;82;21066;-85
2022/01/10 02:23:32;;;;;;;134.18;67.75;;;;;;;-4.34;80.27;101230.59;1738087;82;21775;-85
2022/01/10 02:25:59;;;;;;;134.25;69.22;;;;;;;-4.35;80.24;101232.66;1717080;82;21078;-85
2022/01/10 02:28:26;;;;;;;133.57;68.22;;;;;;;-4.35;80.28;101237.41;1735477;81;21031;-85
2022/01/10 02:30:56;;;;;;;122.25;63.30;;;;;;;-4.33;80.21;101242.69;1735378;82;21218;-85
2022/01/10 02:33:22;;;;;;;134.32;68.17;;;;;;;-4.36;80.13;101243.29;1684966;83;21115;-85
2022/01/10 02:36:02;;;;;;;126.25;66.87;;;;;;;-4.38;80.13;101242.64;1738238;82;21753;-86
2022/01/10 02:38:20;;;;;;;122.92;65.80;;;;;;;-4.37;80.21;101241.89;1734479;82;21039;-85
2022/01/10 02:40:48;;;;;;;131.85;69.22;;;;;;;-4.37;80.14;101249.60;1736418;82;21078;-86
2022/01/10 02:43:15;;;;;;;136.92;69.35;;;;;;;-4.37;80.16;101257.31;1736632;82;21043;-86
2022/01/10 02:45:41;;;;;;;137.35;67.58;;;;;;;-4.37;80.08;101258.59;1735912;82;21058;-86
2022/01/10 02:48:09;;;;;;;138.12;67.37;;;;;;;-4.40;79.98;101262.16;1747881;82;21241;-85
2022/01/10 02:50:36;;;;;;;132.50;67.92;;;;;;;-4.42;79.90;101263.29;1735992;81;21579;-87
2022/01/10 02:53:03;;;;;;;124.65;65.72;;;;;;;-4.44;79.91;101276.38;1685677;85;21079;-86
2022/01/10 02:55:30;;;;;;;129.70;69.37;;;;;;;-4.43;79.97;101282.41;1740492;82;21039;-86
2022/01/10 02:57:56;;;;;;;135.37;69.42;;;;;;;-4.44;79.93;101281.52;1736467;82;21572;-86
2022/01/10 03:00:25;;;;;;;137.75;67.05;;;;;;;-4.46;79.87;101284.72;1736466;82;21754;-87
2022/01/10 03:02:53;;;;;;;145.62;70.12;;;;;;;-4.47;79.81;101285.08;1748912;82;21054;-85
2022/01/10 03:05:22;;;;;;;132.70;68.90;;;;;;;-4.50;79.74;101288.67;1736125;81;21070;-86
2022/01/10 03:07:53;;;;;;;134.00;68.47;;;;;;;-4.52;79.71;101297.51;1685495;85;21600;-86
2022/01/10 03:10:19;;;;;;;131.22;67.42;;;;;;;-4.56;79.62;101305.70;1746843;82;21042;-86
2022/01/10 03:12:46;;;;;;;139.95;66.22;;;;;;;-4.62;79.61;101302.91;1746566;82;21756;-86
2022/01/10 03:15:12;;;;;;;123.58;66.47;;;;;;;-4.66;79.67;101307.24;1749424;80;21086;-84
2022/01/10 03:17:39;;;;;;;131.00;66.95;;;;;;;-4.68;79.81;101308.37;1749225;80;21110;-84
2022/01/10 03:20:08;;;;;;;126.90;63.20;;;;;;;-4.68;79.82;101325.08;1749058;80;21182;-83
2022/01/10 03:22:34;;;;;;;122.28;64.10;;;;;;;-4.70;79.81;101333.02;1735761;81;21129;-84
2022/01/10 03:25:01;;;;;;;132.57;66.00;;;;;;;-4.75;79.90;101330.38;1685129;85;21759;-84
2022/01/10 03:27:28;;;;;;;123.72;62.13;;;;;;;-4.77;79.96;101342.17;1745805;82;21284;-84
2022/01/10 03:29:55;;;;;;;135.60;67.53;;;;;;;-4.80;80.08;101347.05;1743027;82;21058;-84
2022/01/10 03:32:21;;;;;;;128.57;67.65;;;;;;;-4.79;80.21;101353.58;1735744;82;21062;-84
2022/01/10 03:34:48;;;;;;;122.47;64.10;;;;;;;-4.78;80.12;101360.55;1739623;82;21097;-85
2022/01/10 03:37:15;;;;;;;128.38;65.42;;;;;;;-4.77;80.18;101366.58;1735557;82;21696;-84
2022/01/10 03:39:41;;;;;;;137.05;64.90;;;;;;;-4.83;80.20;101360.47;1754156;81;21057;-84
2022/01/10 03:42:12;;;;;;;131.07;64.30;;;;;;;-4.74;80.14;101375.48;1749334;81;21042;-84
2022/01/10 03:44:38;;;;;;;128.97;63.80;;;;;;;-4.73;80.13;101384.08;1735777;81;21042;-85
2022/01/10 03:47:05;;;;;;;125.87;63.50;;;;;;;-4.73;80.16;101383.73;1685178;85;21084;-83
2022/01/10 03:49:32;;;;;;;123.18;61.23;;;;;;;-4.72;80.21;101390.66;1740829;82;21781;-84
2022/01/10 03:51:59;;;;;;;124.42;62.62;;;;;;;-4.70;80.16;101391.70;1735685;82;21063;-85
2022/01/10 03:54:25;;;;;;;122.30;62.17;;;;;;;-4.69;80.12;101397.38;1743036;82;21543;-84
2022/01/10 03:56:52;;;;;;;122.65;63.98;;;;;;;-4.67;80.10;101401.39;1748454;81;21078;-84
2022/01/10 03:59:19;;;;;;;125.20;63.87;;;;;;;-4.93;79.91;101359.98;1729726;82;21094;-84
2022/01/10 04:01:46;;;;;;;113.55;60.73;;;;;;;-4.69;79.90;101414.47;1735575;82;21766;-83
2022/01/10 04:04:13;;;;;;;112.85;60.08;;;;;;;-4.70;80.00;101421.63;1684978;85;21072;-83
2022/01/10 04:06:41;;;;;;;116.08;60.33;;;;;;;-4.72;80.09;101425.72;1746099;82;21102;-83
2022/01/10 04:09:08;;;;;;;122.95;63.10;;;;;;;-4.72;80.21;101430.86;1749025;80;21093;-83
2022/01/10 04:11:34;;;;;;;116.25;60.78;;;;;;;-4.72;80.28;101424.44;1749197;81;21523;-83
2022/01/10 04:14:01;;;;;;;111.83;59.48;;;;;;;-4.71;80.29;101442.92;1748873;80;21830;-83
2022/01/10 04:16:27;;;;;;;120.92;60.55;;;;;;;-4.71;80.42;101445.14;1749009;80;21069;-82
2022/01/10 04:18:54;;;;;;;117.47;59.42;;;;;;;-4.71;80.47;101442.92;1749037;82;21125;-82
2022/01/10 04:21:21;;;;;;;116.97;58.85;;;;;;;-4.70;80.54;101450.78;1749012;81;21014;-82
2022/01/10 04:23:47;;;;;;;123.65;61.55;;;;;;;-4.70;80.54;101457.59;1748734;80;21689;-83
2022/01/10 04:26:16;;;;;;;118.72;59.40;;;;;;;-4.70;80.50;101458.48;1747646;81;21525;-84
2022/01/10 04:28:43;;;;;;;118.20;59.08;;;;;;;-4.69;80.40;101466.73;1740480;81;21109;-84
2022/01/10 04:31:11;;;;;;;109.97;57.53;;;;;;;-4.71;80.46;101466.04;1738880;81;21117;-83
2022/01/10 04:33:38;;;;;;;116.67;58.63;;;;;;;-4.73;80.50;101472.34;1738604;82;21643;-83
2022/01/10 04:36:05;;;;;;;118.30;61.58;;;;;;;-4.72;80.55;101477.09;1738795;82;21073;-82
2022/01/10 04:38:32;;;;;;;114.90;61.05;;;;;;;-4.74;80.44;101476.94;1718248;82;21742;-83
2022/01/10 04:40:59;;;;;;;122.28;62.90;;;;;;;-4.75;80.35;101486.70;1738970;81;21030;-83
2022/01/10 04:43:25;;;;;;;108.85;58.60;;;;;;;-4.76;80.28;101505.80;1738869;81;21073;-83
2022/01/10 04:45:53;;;;;;;111.68;60.17;;;;;;;-4.79;80.36;101511.52;1732870;81;21974;-84
2022/01/10 04:48:20;;;;;;;114.67;58.58;;;;;;;-4.80;80.46;101507.16;1743529;80;21540;-84
2022/01/10 04:53:31;;;;;;;109.90;56.35;;;;;;;-4.77;80.54;101517.72;1757599;80;21011;-83
2022/01/10 04:55:58;;;;;;;109.78;56.85;;;;;;;-4.80;80.50;101523.86;1763060;81;21032;-84
2022/01/10 04:58:24;;;;;;;111.68;57.13;;;;;;;-4.79;80.57;101527.32;1764570;81;21067;-84
2022/01/10 05:00:53;;;;;;;108.07;58.42;;;;;;;-4.78;80.66;101533.90;1764345;81;21028;-82
2022/01/10 05:03:20;;;;;;;112.85;56.95;;;;;;;-4.76;80.64;101539.19;1764324;81;21824;-82
2022/01/10 05:05:48;;;;;;;117.97;60.12;;;;;;;-4.76;80.73;101551.65;1764147;81;21043;-81
2022/01/10 05:08:15;;;;;;;110.03;57.20;;;;;;;-4.76;80.81;101555.50;1764178;80;21059;-80
2022/01/10 05:10:42;;;;;;;110.10;58.55;;;;;;;-4.75;80.89;101556.05;1764106;81;21137;-79
2022/01/10 05:13:09;;;;;;;106.35;56.13;;;;;;;-4.73;80.88;101558.73;1764270;80;21106;-81
2022/01/10 05:15:35;;;;;;;112.55;59.58;;;;;;;-4.75;80.85;101563.75;1764311;81;22630;-80
2022/01/10 05:18:02;;;;;;;120.75;59.40;;;;;;;-4.74;80.88;101567.22;1763916;81;21646;-85
2022/01/10 05:20:29;;;;;;;118.77;58.92;;;;;;;-4.72;81.02;101568.27;1764359;80;21063;-84
2022/01/10 05:22:55;;;;;;;115.62;60.15;;;;;;;-4.70;81.01;101577.03;1764531;81;21063;-83
2022/01/10 05:25:22;;;;;;;103.58;56.42;;;;;;;-4.71;81.01;101579.05;1764465;81;21036;-84
2022/01/10 05:27:48;;;;;;;110.95;56.02;;;;;;;-4.70;81.08;101591.16;1762982;80;21835;-85
2022/01/10 05:30:17;;;;;;;104.53;55.75;;;;;;;-4.70;81.13;101594.62;1776224;80;21135;-85
2022/01/10 05:32:43;;;;;;;104.65;55.78;;;;;;;-4.70;81.15;101595.91;1755618;80;21060;-87
2022/01/10 05:35:10;;;;;;;98.67;54.00;;;;;;;-4.69;81.22;101603.27;1755283;80;21060;-82
2022/01/10 05:37:37;;;;;;;115.42;57.93;;;;;;;-4.68;81.27;101607.63;1755335;81;21056;-83
2022/01/10 05:40:05;;;;;;;96.75;51.40;;;;;;;-4.66;81.35;101612.54;1755160;81;21680;-82
2022/01/10 05:42:31;;;;;;;102.20;55.20;;;;;;;-4.63;81.38;101613.23;1755314;81;21546;-83
2022/01/10 05:44:58;;;;;;;101.18;52.67;;;;;;;-4.60;81.42;101616.09;1755197;81;21091;-82
2022/01/10 05:47:26;;;;;;;93.90;51.95;;;;;;;-4.57;81.47;101613.84;1755255;81;21080;-81
2022/01/10 05:50:00;;;;;;;107.17;54.75;;;;;;;-4.55;81.51;101609.75;1732159;81;21612;-82
2022/01/10 05:52:21;;;;;;;105.10;53.78;;;;;;;-4.46;81.58;101615.80;1755696;80;21710;-83
2022/01/10 05:54:48;;;;;;;103.05;55.48;;;;;;;-4.39;81.51;101626.30;1755847;80;21088;-84
2022/01/10 05:57:14;;;;;;;104.72;55.83;;;;;;;-4.37;81.30;101629.95;1755538;80;21072;-85
2022/01/10 05:59:41;;;;;;;115.08;59.42;;;;;;;-4.31;81.29;101639.54;1780753;80;21066;-83
2022/01/10 06:02:08;;;;;;;97.08;54.93;;;;;;;-4.24;81.32;101650.96;1784683;80;21047;-84
2022/01/10 06:04:34;;;;;;;106.52;56.42;;;;;;;-4.17;81.34;101653.34;1785009;80;22421;-84
2022/01/10 06:07:01;;;;;;;97.47;51.75;;;;;;;-4.10;81.32;101648.44;1784738;80;21203;-84
2022/01/10 06:09:28;;;;;;;101.70;52.93;;;;;;;-4.03;81.29;101657.30;1784778;80;21588;-84
2022/01/10 06:11:55;;;;;;;100.82;52.40;;;;;;;-3.96;81.25;101658.42;1784700;78;21129;-84
2022/01/10 06:14:21;;;;;;;95.50;50.65;;;;;;;-3.91;81.10;101653.70;1784798;80;20996;-84
2022/01/10 06:16:48;;;;;;;100.80;52.15;;;;;;;-3.87;80.90;101659.67;1784831;80;21747;-84
2022/01/10 06:19:15;;;;;;;101.25;52.30;;;;;;;-3.86;80.74;101673.08;1784901;80;22218;-84
2022/01/10 06:21:44;;;;;;;100.42;50.92;;;;;;;-3.87;80.59;101679.35;1784540;80;21047;-84
2022/01/10 06:24:11;;;;;;;98.25;52.30;;;;;;;-3.87;80.52;101681.53;1784640;78;21016;-87
2022/01/10 06:26:38;;;;;;;95.45;51.85;;;;;;;-3.89;80.33;101689.48;1784771;80;21051;-84
2022/01/10 06:29:04;;;;;;;91.67;49.77;;;;;;;-3.93;80.19;101699.84;1780576;79;21771;-84
2022/01/10 06:31:31;;;;;;;91.80;50.40;;;;;;;-3.98;80.17;101708.80;1778867;80;21517;-83
2022/01/10 06:33:58;;;;;;;92.70;52.05;;;;;;;-4.09;80.16;101711.98;1779197;80;21031;-84
2022/01/10 06:36:25;;;;;;;94.67;50.38;;;;;;;-4.08;80.25;101727.92;1778348;80;22307;-83
2022/01/10 06:38:51;;;;;;;105.40;55.48;;;;;;;-4.10;80.29;101730.33;1778422;80;21090;-83
2022/01/10 06:41:18;;;;;;;104.87;56.15;;;;;;;-4.14;80.23;101737.22;1778448;80;21987;-83
2022/01/10 06:43:44;;;;;;;114.10;58.05;;;;;;;-4.20;80.10;101739.19;1778352;78;21703;-87
2022/01/10 06:46:11;;;;;;;109.48;56.10;;;;;;;-4.23;80.12;101744.02;1778312;80;21060;-83
2022/01/10 06:48:38;;;;;;;105.85;56.92;;;;;;;-4.27;80.09;101744.86;1778174;80;21275;-82
2022/01/10 06:51:05;;;;;;;102.07;55.90;;;;;;;-4.31;80.14;101744.92;1778456;78;21071;-82
2022/01/10 06:53:31;;;;;;;110.08;57.30;;;;;;;-4.34;80.26;101750.64;1778990;78;21759;-81
2022/01/10 06:55:58;;;;;;;113.05;60.17;;;;;;;-4.35;80.23;101760.80;1779039;78;21004;-81
2022/01/10 06:58:25;;;;;;;113.80;60.55;;;;;;;-4.42;80.20;101750.66;1779012;79;21016;-81
2022/01/10 07:00:51;;;;;;;118.08;62.85;;;;;;;-4.41;80.11;101762.37;1778778;79;21075;-81
2022/01/10 07:03:20;;;;;;;117.47;61.48;;;;;;;-4.45;79.98;101769.61;1778355;79;21048;-81
2022/01/10 07:05:46;;;;;;;119.65;61.33;;;;;;;-4.49;79.92;101770.95;1778954;80;21809;-81
2022/01/10 07:08:13;;;;;;;116.03;61.53;;;;;;;-4.52;79.92;101778.38;1778703;78;21062;-81
2022/01/10 07:10:40;;;;;;;119.53;60.63;;;;;;;-4.53;79.91;101785.53;1778827;80;21043;-81
2022/01/10 07:13:06;;;;;;;117.60;62.78;;;;;;;-4.54;79.93;101796.58;1779147;78;21059;-86
2022/01/10 07:15:33;;;;;;;119.05;62.93;;;;;;;-4.54;79.96;101797.48;1780318;79;21040;-85
2022/01/10 07:18:00;;;;;;;112.47;59.08;;;;;;;-4.56;80.00;101800.27;1780302;80;21746;-85
2022/01/10 07:20:27;;;;;;;128.18;66.25;;;;;;;-4.54;80.03;101810.72;1779874;78;21470;-86
2022/01/10 07:22:56;;;;;;;117.35;63.23;;;;;;;-4.52;80.00;101815.25;1779927;80;21754;-85
2022/01/10 07:25:22;;;;;;;119.28;63.38;;;;;;;-4.52;79.94;101817.81;1779862;80;21091;-85
2022/01/10 07:27:49;;;;;;;127.20;63.58;;;;;;;-4.51;79.97;101822.56;1779965;78;21087;-86
2022/01/10 07:30:16;;;;;;;126.50;65.47;;;;;;;-4.48;79.96;101825.84;1785764;79;21781;-85
2022/01/10 07:32:42;;;;;;;118.15;61.80;;;;;;;-4.47;79.93;101829.83;1785333;80;21062;-85
2022/01/10 07:35:10;;;;;;;112.08;59.95;;;;;;;-4.43;79.96;101834.91;1785005;78;21075;-84
2022/01/10 07:37:37;;;;;;;114.37;58.17;;;;;;;-4.43;79.94;101840.05;1784567;80;21224;-85
2022/01/10 07:40:05;;;;;;;112.20;58.00;;;;;;;-4.40;80.00;101843.84;1785021;80;21059;-84
2022/01/10 07:42:32;;;;;;;116.30;59.30;;;;;;;-4.37;80.04;101842.89;1785100;78;22235;-82
2022/01/10 07:44:59;;;;;;;120.05;60.58;;;;;;;-4.32;79.97;101848.13;1784441;78;21070;-83
2022/01/10 07:47:25;;;;;;;106.78;58.45;;;;;;;-4.28;79.99;101855.74;1785043;80;21020;-87
2022/01/10 07:49:52;;;;;;;105.85;59.58;;;;;;;-4.26;79.93;101859.77;1785222;78;21547;-84
2022/01/10 07:52:19;;;;;;;122.45;61.40;;;;;;;-4.23;79.89;101868.70;1785159;80;21579;-85
2022/01/10 07:54:45;;;;;;;118.65;63.20;;;;;;;-4.19;79.93;101869.53;1784872;80;21801;-83
2022/01/10 07:57:12;;;;;;;116.15;63.33;;;;;;;-4.14;79.91;101877.35;1785141;80;21023;-83
2022/01/10 07:59:40;;;;;;;120.13;64.45;;;;;;;-4.10;79.88;101878.57;1785240;78;21020;-84
2022/01/10 08:02:08;;;;;;;118.50;62.23;;;;;;;-4.05;79.92;101885.45;1784873;78;21055;-83
2022/01/10 08:04:35;;;;;;;115.03;63.17;;;;;;;-4.01;79.97;101880.80;1784968;80;21052;-83
2022/01/10 08:07:02;;;;;;;122.15;66.53;;;;;;;-3.96;79.92;101886.03;1784922;80;21711;-83
2022/01/10 08:09:28;;;;;;;127.20;68.10;;;;;;;-3.91;79.87;101904.48;1784948;80;21008;-83
2022/01/10 08:11:59;;;;;;;131.67;66.90;;;;;;;-3.87;79.80;101904.42;1785169;80;21056;-85
2022/01/10 08:14:24;;;;;;;132.87;66.65;;;;;;;-3.83;79.81;101914.27;1785215;80;21067;-85
2022/01/10 08:16:50;;;;;;;131.05;69.42;;;;;;;-3.79;79.86;101918.95;1785571;78;21035;-84
2022/01/10 08:19:17;;;;;;;138.10;68.47;;;;;;;-3.74;79.83;101921.23;1785805;80;21750;-86
2022/01/10 08:21:44;;;;;;;135.22;70.72;;;;;;;-3.72;79.78;101927.48;1785830;80;21091;-86
2022/01/10 08:24:10;;;;;;;125.38;69.55;;;;;;;-3.65;79.81;101933.23;1785769;80;21493;-85
2022/01/10 08:26:37;;;;;;;131.47;70.47;;;;;;;-3.62;79.82;101934.45;1785832;78;21088;-85
2022/01/10 08:29:03;;;;;;;131.00;70.78;;;;;;;-3.56;79.83;101939.30;1783200;79;21091;-86
2022/01/10 08:31:30;;;;;;;139.97;74.00;;;;;;;-3.53;79.84;101935.37;1780789;80;21791;-85
2022/01/10 08:33:57;;;;;;;145.40;75.87;;;;;;;-3.47;79.85;101939.30;1781126;80;21080;-85
2022/01/10 08:36:26;;;;;;;150.72;79.67;;;;;;;-3.40;79.87;101940.44;1781554;80;21060;-85
2022/01/10 08:38:52;;;;;;;152.68;81.30;;;;;;;-3.43;79.86;101934.63;1781462;80;21248;-86
2022/01/10 08:41:19;;;;;;;147.85;77.70;;;;;;;-3.32;79.90;101949.47;1781857;79;20988;-86
2022/01/10 08:43:46;;;;;;;146.30;77.67;;;;;;;-3.25;79.90;101955.23;1781298;80;21741;-86
2022/01/10 08:46:12;;;;;;;138.62;72.32;;;;;;;-3.20;79.91;101960.47;1780727;78;21099;-85
2022/01/10 08:48:40;;;;;;;130.50;71.62;;;;;;;-3.14;79.95;101967.50;1780361;79;21127;-85
2022/01/10 08:51:07;;;;;;;125.27;66.15;;;;;;;-3.10;79.98;101958.02;1780539;80;21056;-85
2022/01/10 08:53:34;;;;;;;124.20;67.53;;;;;;;-3.03;79.97;101963.42;1780519;80;21059;-87
2022/01/10 08:56:03;;;;;;;130.15;68.75;;;;;;;-3.01;79.94;101964.09;1780216;79;21739;-84
2022/01/10 08:58:32;;;;;;;132.85;69.00;;;;;;;-2.95;79.98;101972.45;1779848;78;21063;-85
2022/01/10 09:00:59;;;;;;;126.22;68.17;;;;;;;-2.87;80.00;101977.42;1780267;80;21137;-86
2022/01/10 09:03:26;;;;;;;139.65;71.00;;;;;;;-2.81;80.00;101985.77;1779865;80;20989;-86
2022/01/10 09:05:54;;;;;;;147.13;74.97;;;;;;;-2.74;80.00;101996.83;1779956;80;21047;-86
2022/01/10 09:08:27;;;;;;;140.35;73.55;;;;;;;-2.66;80.01;101999.25;1779914;79;21776;-86
2022/01/10 09:10:54;;;;;;;148.45;72.60;;;;;;;-2.62;79.99;101994.92;1780043;80;21619;-86
2022/01/10 09:13:21;;;;;;;131.78;71.37;;;;;;;-2.56;80.02;101996.41;1780179;80;21639;-86
2022/01/10 09:15:48;;;;;;;143.43;73.90;;;;;;;-2.47;80.04;102000.27;1780312;79;21178;-87
2022/01/10 09:18:14;;;;;;;142.65;75.78;;;;;;;-2.41;80.07;102011.56;1780184;78;20989;-87
2022/01/10 09:20:42;;;;;;;152.85;78.85;;;;;;;-2.33;80.09;102020.03;1780337;80;21759;-86
2022/01/10 09:23:08;;;;;;;140.95;74.37;;;;;;;-2.30;79.97;102012.61;1780079;80;21063;-87
2022/01/10 09:25:35;;;;;;;125.25;68.40;;;;;;;-2.27;80.00;102022.84;1780539;80;21238;-87
2022/01/10 09:28:02;;;;;;;128.47;68.45;;;;;;;-2.18;80.12;102026.67;1780407;80;21051;-85
2022/01/10 09:30:28;;;;;;;133.57;72.85;;;;;;;-2.10;80.14;102033.85;1776357;78;21066;-86
2022/01/10 09:32:55;;;;;;;119.62;68.57;;;;;;;-2.03;80.17;102038.84;1775242;79;21794;-86
2022/01/10 09:35:23;;;;;;;115.10;62.78;;;;;;;-1.97;80.23;102042.04;1774889;80;21517;-86
2022/01/10 09:37:49;;;;;;;109.85;61.02;;;;;;;-1.90;80.25;102050.87;1775168;79;21121;-87
2022/01/10 09:40:16;;;;;;;83.78;48.13;;;;;;;-1.80;80.30;102057.84;1774889;80;21054;-86
2022/01/10 09:42:45;;;;;;;80.03;46.45;;;;;;;-1.72;80.15;102058.19;1774542;79;21050;-86
2022/01/10 09:45:11;;;;;;;85.03;48.87;;;;;;;-1.66;80.03;102063.02;1764373;80;21827;-86
2022/01/10 09:47:38;;;;;;;90.77;52.62;;;;;;;-1.60;80.06;102071.34;1775022;80;21622;-86
2022/01/10 09:50:07;;;;;;;94.30;54.13;;;;;;;-1.52;80.16;102065.25;1774924;79;21050;-86
2022/01/10 09:52:35;;;;;;;90.17;53.02;;;;;;;-1.47;80.07;102075.60;1775042;79;21397;-86
2022/01/10 09:55:02;;;;;;;74.58;45.03;;;;;;;-1.42;79.97;102080.83;1774896;79;21580;-86
2022/01/10 09:57:28;;;;;;;84.37;49.58;;;;;;;-1.39;79.90;102082.42;1775088;79;21082;-86
2022/01/10 09:59:55;;;;;;;88.92;51.13;;;;;;;-1.32;79.89;102094.61;1774834;79;21086;-86
2022/01/10 10:02:23;;;;;;;86.02;49.80;;;;;;;-1.29;79.81;102097.50;1774757;79;21109;-86
2022/01/10 10:04:50;;;;;;;74.87;45.08;;;;;;;-1.28;79.62;102100.20;1774791;79;21218;-86
2022/01/10 10:07:18;;;;;;;80.97;45.48;;;;;;;-1.27;79.48;102104.61;1775014;79;21058;-86
2022/01/10 10:09:44;;;;;;;75.42;43.63;;;;;;;-1.27;79.46;102105.00;1775028;80;21714;-86
2022/01/10 10:12:11;;;;;;;72.50;42.93;;;;;;;-1.26;79.34;102119.36;1715488;80;21066;-86
2022/01/10 10:14:40;;;;;;;74.55;42.65;;;;;;;-1.27;79.17;102123.09;1775245;79;21031;-87
2022/01/10 10:17:13;;;;;;;75.78;44.08;;;;;;;-1.26;79.16;102119.72;1764502;80;21260;-86
2022/01/10 10:19:35;;;;;;;70.25;41.20;;;;;;;-1.26;79.05;102128.77;1775405;79;21047;-85
2022/01/10 10:22:02;;;;;;;72.65;41.40;;;;;;;-1.23;78.86;102129.97;1774484;80;21731;-86
2022/01/10 10:24:28;;;;;;;77.87;43.95;;;;;;;-1.23;78.78;102139.01;1774743;79;21039;-86
2022/01/10 10:26:56;;;;;;;82.45;44.08;;;;;;;-1.20;78.75;102143.19;1774774;79;21030;-86
2022/01/10 10:29:23;;;;;;;75.62;42.40;;;;;;;-1.19;78.69;102146.27;1764541;80;21205;-86
2022/01/10 10:31:52;;;;;;;69.07;39.00;;;;;;;-1.18;78.61;102145.92;1781867;78;21067;-86
2022/01/10 10:34:23;;;;;;;68.42;38.42;;;;;;;-1.15;78.66;102152.64;1782052;79;21731;-85
2022/01/10 10:37:07;;;;;;;70.62;40.78;;;;;;;-1.11;78.52;102153.84;1782047;79;21513;-85
2022/01/10 10:39:36;;;;;;;65.72;36.68;;;;;;;-1.11;78.38;102163.80;1781989;80;21052;-85
2022/01/10 10:42:05;;;;;;;65.20;38.28;;;;;;;-1.09;78.25;102173.92;1781956;79;21052;-86
2022/01/10 10:44:33;;;;;;;56.80;33.90;;;;;;;-1.08;78.16;102174.43;1784409;79;21051;-86
2022/01/10 10:47:00;;;;;;;71.42;38.63;;;;;;;-1.06;78.01;102174.19;1787593;80;22476;-86
2022/01/10 10:49:34;;;;;;;63.42;35.65;;;;;;;-1.03;78.04;102174.88;1787598;80;21019;-86
2022/01/10 10:52:00;;;;;;;66.47;37.40;;;;;;;-0.99;77.92;102182.16;1788231;79;21138;-85
2022/01/10 10:54:31;;;;;;;60.52;35.58;;;;;;;-0.93;77.98;102182.72;1788054;80;21095;-86
2022/01/10 10:56:56;;;;;;;53.98;33.18;;;;;;;-0.86;78.04;102179.95;1788002;80;21118;-86
2022/01/10 10:59:24;;;;;;;58.08;34.38;;;;;;;-0.85;77.64;102179.56;1788059;78;22601;-85
2022/01/10 11:01:51;;;;;;;60.17;34.03;;;;;;;-0.80;77.64;102186.08;1787982;80;21471;-85
2022/01/10 11:04:20;;;;;;;56.98;33.08;;;;;;;-0.74;77.62;102191.81;1787890;80;21055;-86
2022/01/10 11:06:47;;;;;;;56.77;32.38;;;;;;;-0.69;77.46;102194.45;1788122;79;21047;-85
2022/01/10 11:09:14;;;;;;;49.08;29.60;;;;;;;-0.67;77.35;102185.16;1787896;80;21067;-86
2022/01/10 11:11:43;;;;;;;53.70;29.63;;;;;;;-0.62;77.21;102194.62;1788365;80;22610;-86